Westville Lake, Ohio
Current Conditions -  °F | °C
As of 2:51 PM on Friday 28 Nov 2014 (Local Time) from KCAK Reporting Station
Overcast Overcast  
Wind Chill: -8°   Ceiling: 2500
Heat Index: -3°   Visibility: 10mi
Dew Point: -8°   Wind: 10mph
Humidity: 66%   Direction: 220°SW
Pressure: 30.22"   Gusts: NA
Location:  40.915°N, 80.9865°W
Report Text: KCAK 281951Z 22009KT 10SM OVC025 M03/M08 A3022 RMK AO2 SLP251 T10281083
Loading
Personal Weather Stations






























Interactive Weather Map New forecast layout! Learn more

10-Day Weather Forecast

Advertisements
Track Severe Weather on mobile